Terminal Aerodrome Forecast
Issued by NWS

Home | Current Version | Previous Version | Text Only | Print | Product List | Glossary Off
Versions: 1 2 3 4 5 6 7 8 9 10 11 12 13 14 15 16 17 18 19

000
FTUS43 KTOP 111700
TAFMHK
TAF
KMHK 111738Z 1118/1218 18009KT P6SM FEW110
      TEMPO 1120/1124 20013G21KT
     FM121600 21013G21KT P6SM FEW250=

USA.gov is the U.S. government's official web portal to all federal, state and local government web resources and services.